sensor_id;sensor_type;location;lat;lon;timestamp;temperature;humidity
62583;DHT22;48641;51.676;5.808;2023-03-29T00:00:10;13.80;61.60
62583;DHT22;48641;51.676;5.808;2023-03-29T00:02:39;13.80;61.60
62583;DHT22;48641;51.676;5.808;2023-03-29T00:05:05;13.80;61.60
62583;DHT22;48641;51.676;5.808;2023-03-29T00:07:31;13.80;61.60
62583;DHT22;48641;51.676;5.808;2023-03-29T00:09:58;13.80;61.60
62583;DHT22;48641;51.676;5.808;2023-03-29T00:12:24;13.80;61.60
62583;DHT22;48641;51.676;5.808;2023-03-29T00:14:50;13.80;61.60
62583;DHT22;48641;51.676;5.808;2023-03-29T00:17:16;13.80;61.60
62583;DHT22;48641;51.676;5.808;2023-03-29T00:19:43;13.80;61.50
62583;DHT22;48641;51.676;5.808;2023-03-29T00:22:09;13.80;61.60
62583;DHT22;48641;51.676;5.808;2023-03-29T00:24:34;13.80;61.60
62583;DHT22;48641;51.676;5.808;2023-03-29T00:27:00;13.80;61.60
62583;DHT22;48641;51.676;5.808;2023-03-29T00:29:26;13.80;61.60
62583;DHT22;48641;51.676;5.808;2023-03-29T00:31:52;13.80;61.60
62583;DHT22;48641;51.676;5.808;2023-03-29T00:34:24;13.80;61.60
62583;DHT22;48641;51.676;5.808;2023-03-29T00:36:51;13.80;61.60
62583;DHT22;48641;51.676;5.808;2023-03-29T00:39:19;13.70;61.60
62583;DHT22;48641;51.676;5.808;2023-03-29T00:41:45;13.80;61.60
62583;DHT22;48641;51.676;5.808;2023-03-29T00:47:15;13.80;61.60
62583;DHT22;48641;51.676;5.808;2023-03-29T00:49:43;13.70;61.60
62583;DHT22;48641;51.676;5.808;2023-03-29T00:52:11;13.70;61.60
62583;DHT22;48641;51.676;5.808;2023-03-29T00:54:41;13.70;61.60
62583;DHT22;48641;51.676;5.808;2023-03-29T00:57:09;13.70;61.60
62583;DHT22;48641;51.676;5.808;2023-03-29T00:59:35;13.70;61.60
62583;DHT22;48641;51.676;5.808;2023-03-29T01:02:05;13.70;61.60
62583;DHT22;48641;51.676;5.808;2023-03-29T01:04:39;13.70;61.60
62583;DHT22;48641;51.676;5.808;2023-03-29T01:07:15;13.70;61.60
62583;DHT22;48641;51.676;5.808;2023-03-29T01:09:47;13.70;61.60
62583;DHT22;48641;51.676;5.808;2023-03-29T01:12:19;13.70;61.60
62583;DHT22;48641;51.676;5.808;2023-03-29T01:14:57;13.70;61.60
62583;DHT22;48641;51.676;5.808;2023-03-29T01:17:24;13.70;61.60
62583;DHT22;48641;51.676;5.808;2023-03-29T01:20:04;13.70;61.60
62583;DHT22;48641;51.676;5.808;2023-03-29T01:28:13;13.70;61.60
62583;DHT22;48641;51.676;5.808;2023-03-29T01:30:48;13.70;61.80
62583;DHT22;48641;51.676;5.808;2023-03-29T01:33:21;13.70;61.70
62583;DHT22;48641;51.676;5.808;2023-03-29T01:38:57;13.70;61.60
62583;DHT22;48641;51.676;5.808;2023-03-29T01:44:12;13.70;61.70
62583;DHT22;48641;51.676;5.808;2023-03-29T01:46:47;13.70;61.70
62583;DHT22;48641;51.676;5.808;2023-03-29T01:49:27;13.70;61.80
62583;DHT22;48641;51.676;5.808;2023-03-29T01:51:58;13.70;61.70
62583;DHT22;48641;51.676;5.808;2023-03-29T01:54:37;13.70;61.80
62583;DHT22;48641;51.676;5.808;2023-03-29T01:57:05;13.70;61.70
62583;DHT22;48641;51.676;5.808;2023-03-29T01:59:37;13.70;61.70
62583;DHT22;48641;51.676;5.808;2023-03-29T02:02:07;13.70;61.70
62583;DHT22;48641;51.676;5.808;2023-03-29T02:04:42;13.70;61.70
62583;DHT22;48641;51.676;5.808;2023-03-29T02:07:15;13.70;62.70
62583;DHT22;48641;51.676;5.808;2023-03-29T02:09:42;13.70;61.70
62583;DHT22;48641;51.676;5.808;2023-03-29T02:12:08;13.60;61.70
62583;DHT22;48641;51.676;5.808;2023-03-29T02:14:35;13.70;61.70
62583;DHT22;48641;51.676;5.808;2023-03-29T02:19:39;13.70;61.70
62583;DHT22;48641;51.676;5.808;2023-03-29T02:22:08;13.70;61.70
62583;DHT22;48641;51.676;5.808;2023-03-29T02:24:36;13.70;61.70
62583;DHT22;48641;51.676;5.808;2023-03-29T02:27:03;13.60;61.70
62583;DHT22;48641;51.676;5.808;2023-03-29T02:29:29;13.60;61.70
62583;DHT22;48641;51.676;5.808;2023-03-29T02:32:09;13.70;61.70
62583;DHT22;48641;51.676;5.808;2023-03-29T02:35:20;13.70;61.70
62583;DHT22;48641;51.676;5.808;2023-03-29T02:37:47;13.70;61.60
62583;DHT22;48641;51.676;5.808;2023-03-29T02:40:16;13.60;61.80
62583;DHT22;48641;51.676;5.808;2023-03-29T02:42:43;13.60;61.80
62583;DHT22;48641;51.676;5.808;2023-03-29T02:45:11;13.60;61.80
62583;DHT22;48641;51.676;5.808;2023-03-29T02:47:42;13.60;61.80
62583;DHT22;48641;51.676;5.808;2023-03-29T02:50:09;13.60;61.80
62583;DHT22;48641;51.676;5.808;2023-03-29T02:52:38;13.60;61.80
62583;DHT22;48641;51.676;5.808;2023-03-29T02:55:08;13.60;61.70
62583;DHT22;48641;51.676;5.808;2023-03-29T02:57:35;13.60;61.70
62583;DHT22;48641;51.676;5.808;2023-03-29T03:00:04;13.60;61.80
62583;DHT22;48641;51.676;5.808;2023-03-29T03:02:34;13.60;61.80
62583;DHT22;48641;51.676;5.808;2023-03-29T03:04:59;13.60;61.70
62583;DHT22;48641;51.676;5.808;2023-03-29T03:07:25;13.60;61.70
62583;DHT22;48641;51.676;5.808;2023-03-29T03:09:50;13.60;61.70
62583;DHT22;48641;51.676;5.808;2023-03-29T03:12:17;13.60;61.70
62583;DHT22;48641;51.676;5.808;2023-03-29T03:14:42;13.60;61.80
62583;DHT22;48641;51.676;5.808;2023-03-29T03:17:08;13.60;61.70
62583;DHT22;48641;51.676;5.808;2023-03-29T03:19:34;13.60;61.70
62583;DHT22;48641;51.676;5.808;2023-03-29T03:22:00;13.60;61.70
62583;DHT22;48641;51.676;5.808;2023-03-29T03:24:26;13.60;61.80
62583;DHT22;48641;51.676;5.808;2023-03-29T03:26:53;13.60;61.70
62583;DHT22;48641;51.676;5.808;2023-03-29T03:29:19;13.60;62.30
62583;DHT22;48641;51.676;5.808;2023-03-29T03:31:45;13.60;61.80
62583;DHT22;48641;51.676;5.808;2023-03-29T03:34:11;13.60;61.70
62583;DHT22;48641;51.676;5.808;2023-03-29T03:36:37;13.60;61.70
62583;DHT22;48641;51.676;5.808;2023-03-29T03:39:03;13.60;61.70
62583;DHT22;48641;51.676;5.808;2023-03-29T03:41:32;13.60;61.80
62583;DHT22;48641;51.676;5.808;2023-03-29T03:43:58;13.60;61.80
62583;DHT22;48641;51.676;5.808;2023-03-29T03:46:24;13.60;61.90
62583;DHT22;48641;51.676;5.808;2023-03-29T03:48:49;13.60;61.70
62583;DHT22;48641;51.676;5.808;2023-03-29T03:51:16;13.60;61.80
62583;DHT22;48641;51.676;5.808;2023-03-29T03:53:41;13.60;61.80
62583;DHT22;48641;51.676;5.808;2023-03-29T03:56:08;13.60;61.70
62583;DHT22;48641;51.676;5.808;2023-03-29T03:58:34;13.60;61.80
62583;DHT22;48641;51.676;5.808;2023-03-29T04:01:00;13.60;61.80
62583;DHT22;48641;51.676;5.808;2023-03-29T04:03:26;13.60;61.80
62583;DHT22;48641;51.676;5.808;2023-03-29T04:05:52;13.70;61.80
62583;DHT22;48641;51.676;5.808;2023-03-29T04:08:18;13.60;61.70
62583;DHT22;48641;51.676;5.808;2023-03-29T04:10:51;13.60;61.80
62583;DHT22;48641;51.676;5.808;2023-03-29T04:13:17;13.60;61.80
62583;DHT22;48641;51.676;5.808;2023-03-29T04:15:43;13.60;61.80
62583;DHT22;48641;51.676;5.808;2023-03-29T04:18:10;13.60;61.80
62583;DHT22;48641;51.676;5.808;2023-03-29T04:20:37;13.60;61.80
62583;DHT22;48641;51.676;5.808;2023-03-29T04:23:02;13.60;61.80
62583;DHT22;48641;51.676;5.808;2023-03-29T04:25:28;13.60;61.80
62583;DHT22;48641;51.676;5.808;2023-03-29T04:27:54;13.60;61.80
62583;DHT22;48641;51.676;5.808;2023-03-29T04:30:20;13.60;61.90
62583;DHT22;48641;51.676;5.808;2023-03-29T04:32:46;13.60;61.80
62583;DHT22;48641;51.676;5.808;2023-03-29T04:35:12;13.60;61.80
62583;DHT22;48641;51.676;5.808;2023-03-29T04:37:37;13.60;61.80
62583;DHT22;48641;51.676;5.808;2023-03-29T04:40:06;13.60;61.80
62583;DHT22;48641;51.676;5.808;2023-03-29T04:42:34;13.60;61.80
62583;DHT22;48641;51.676;5.808;2023-03-29T04:45:02;13.60;61.80
62583;DHT22;48641;51.676;5.808;2023-03-29T04:47:27;13.60;61.80
62583;DHT22;48641;51.676;5.808;2023-03-29T04:49:54;13.60;61.80
62583;DHT22;48641;51.676;5.808;2023-03-29T04:52:20;13.60;61.90
62583;DHT22;48641;51.676;5.808;2023-03-29T04:54:46;13.60;61.90
62583;DHT22;48641;51.676;5.808;2023-03-29T04:57:12;13.60;61.80
62583;DHT22;48641;51.676;5.808;2023-03-29T04:59:37;13.60;61.80
62583;DHT22;48641;51.676;5.808;2023-03-29T05:02:03;13.60;61.80
62583;DHT22;48641;51.676;5.808;2023-03-29T05:04:30;13.60;61.80
62583;DHT22;48641;51.676;5.808;2023-03-29T05:06:57;13.60;61.90
62583;DHT22;48641;51.676;5.808;2023-03-29T05:09:24;13.60;61.80
62583;DHT22;48641;51.676;5.808;2023-03-29T05:11:50;13.60;61.90
62583;DHT22;48641;51.676;5.808;2023-03-29T05:24:37;13.50;61.90
62583;DHT22;48641;51.676;5.808;2023-03-29T05:27:03;13.50;61.90
62583;DHT22;48641;51.676;5.808;2023-03-29T05:29:29;13.50;61.90
62583;DHT22;48641;51.676;5.808;2023-03-29T05:31:57;13.50;61.80
62583;DHT22;48641;51.676;5.808;2023-03-29T05:34:24;13.50;61.80
62583;DHT22;48641;51.676;5.808;2023-03-29T05:36:50;13.50;61.90
62583;DHT22;48641;51.676;5.808;2023-03-29T05:39:16;13.50;61.80
62583;DHT22;48641;51.676;5.808;2023-03-29T05:41:42;13.50;61.80
62583;DHT22;48641;51.676;5.808;2023-03-29T05:44:09;13.50;61.80
62583;DHT22;48641;51.676;5.808;2023-03-29T05:46:34;13.50;61.80
62583;DHT22;48641;51.676;5.808;2023-03-29T05:49:00;13.50;61.80
62583;DHT22;48641;51.676;5.808;2023-03-29T05:51:26;13.50;61.80
62583;DHT22;48641;51.676;5.808;2023-03-29T05:53:52;13.50;61.80
62583;DHT22;48641;51.676;5.808;2023-03-29T05:56:18;13.50;61.80
62583;DHT22;48641;51.676;5.808;2023-03-29T05:58:44;13.50;61.80
62583;DHT22;48641;51.676;5.808;2023-03-29T06:01:14;13.50;62.70
62583;DHT22;48641;51.676;5.808;2023-03-29T06:03:42;13.50;61.80
62583;DHT22;48641;51.676;5.808;2023-03-29T06:06:08;13.50;61.80
62583;DHT22;48641;51.676;5.808;2023-03-29T06:08:34;13.50;61.80
62583;DHT22;48641;51.676;5.808;2023-03-29T06:11:02;13.50;61.90
62583;DHT22;48641;51.676;5.808;2023-03-29T06:13:29;13.50;61.80
62583;DHT22;48641;51.676;5.808;2023-03-29T06:15:56;13.50;61.80
62583;DHT22;48641;51.676;5.808;2023-03-29T06:18:22;13.50;61.90
62583;DHT22;48641;51.676;5.808;2023-03-29T06:20:50;13.50;61.90
62583;DHT22;48641;51.676;5.808;2023-03-29T06:23:20;13.50;62.00
62583;DHT22;48641;51.676;5.808;2023-03-29T06:25:46;13.50;62.10
62583;DHT22;48641;51.676;5.808;2023-03-29T06:28:13;13.50;62.20
62583;DHT22;48641;51.676;5.808;2023-03-29T06:30:39;13.50;62.30
62583;DHT22;48641;51.676;5.808;2023-03-29T06:33:07;13.50;62.40
62583;DHT22;48641;51.676;5.808;2023-03-29T06:35:33;13.50;62.40
62583;DHT22;48641;51.676;5.808;2023-03-29T06:38:00;13.40;62.40
62583;DHT22;48641;51.676;5.808;2023-03-29T06:40:26;13.50;62.40
62583;DHT22;48641;51.676;5.808;2023-03-29T06:42:54;13.50;62.40
62583;DHT22;48641;51.676;5.808;2023-03-29T06:45:28;13.50;62.50
62583;DHT22;48641;51.676;5.808;2023-03-29T06:47:53;13.50;62.50
62583;DHT22;48641;51.676;5.808;2023-03-29T06:50:20;13.50;62.60
62583;DHT22;48641;51.676;5.808;2023-03-29T06:52:47;13.50;62.60
62583;DHT22;48641;51.676;5.808;2023-03-29T06:55:13;13.60;62.60
62583;DHT22;48641;51.676;5.808;2023-03-29T06:57:40;13.60;62.60
62583;DHT22;48641;51.676;5.808;2023-03-29T07:00:07;13.60;62.60
62583;DHT22;48641;51.676;5.808;2023-03-29T07:02:44;13.60;62.60
62583;DHT22;48641;51.676;5.808;2023-03-29T07:05:11;13.60;62.50
62583;DHT22;48641;51.676;5.808;2023-03-29T07:07:43;13.60;62.50
62583;DHT22;48641;51.676;5.808;2023-03-29T07:10:22;13.60;62.50
62583;DHT22;48641;51.676;5.808;2023-03-29T07:12:48;13.70;62.50
62583;DHT22;48641;51.676;5.808;2023-03-29T07:15:14;13.70;62.50
62583;DHT22;48641;51.676;5.808;2023-03-29T07:17:40;13.70;62.50
62583;DHT22;48641;51.676;5.808;2023-03-29T07:20:06;13.70;62.50
62583;DHT22;48641;51.676;5.808;2023-03-29T07:22:37;13.70;62.40
62583;DHT22;48641;51.676;5.808;2023-03-29T07:25:03;13.70;62.40
62583;DHT22;48641;51.676;5.808;2023-03-29T07:27:28;13.70;62.40
62583;DHT22;48641;51.676;5.808;2023-03-29T07:29:54;13.70;62.40
62583;DHT22;48641;51.676;5.808;2023-03-29T07:32:21;13.70;62.40
62583;DHT22;48641;51.676;5.808;2023-03-29T07:34:47;13.70;62.40
62583;DHT22;48641;51.676;5.808;2023-03-29T07:37:13;13.70;62.40
62583;DHT22;48641;51.676;5.808;2023-03-29T07:39:39;13.70;62.40
62583;DHT22;48641;51.676;5.808;2023-03-29T07:42:05;13.70;62.40
62583;DHT22;48641;51.676;5.808;2023-03-29T07:44:31;13.80;62.40
62583;DHT22;48641;51.676;5.808;2023-03-29T07:47:00;13.80;62.40
62583;DHT22;48641;51.676;5.808;2023-03-29T07:49:26;13.80;63.40
62583;DHT22;48641;51.676;5.808;2023-03-29T07:51:51;13.80;62.40
62583;DHT22;48641;51.676;5.808;2023-03-29T07:54:19;13.80;62.40
62583;DHT22;48641;51.676;5.808;2023-03-29T07:56:45;13.80;62.40
62583;DHT22;48641;51.676;5.808;2023-03-29T07:59:12;13.80;62.40
62583;DHT22;48641;51.676;5.808;2023-03-29T08:01:38;13.80;62.40
62583;DHT22;48641;51.676;5.808;2023-03-29T08:04:05;13.80;62.40
62583;DHT22;48641;51.676;5.808;2023-03-29T08:06:31;13.90;62.50
62583;DHT22;48641;51.676;5.808;2023-03-29T08:08:58;13.80;62.40
62583;DHT22;48641;51.676;5.808;2023-03-29T08:11:24;13.80;62.40
62583;DHT22;48641;51.676;5.808;2023-03-29T08:13:50;13.90;62.40
62583;DHT22;48641;51.676;5.808;2023-03-29T08:16:16;13.90;62.30
62583;DHT22;48641;51.676;5.808;2023-03-29T08:18:42;13.90;62.30
62583;DHT22;48641;51.676;5.808;2023-03-29T08:21:07;13.90;62.30
62583;DHT22;48641;51.676;5.808;2023-03-29T08:23:33;13.90;62.30
62583;DHT22;48641;51.676;5.808;2023-03-29T08:25:59;13.90;62.30
62583;DHT22;48641;51.676;5.808;2023-03-29T08:28:24;13.90;62.40
62583;DHT22;48641;51.676;5.808;2023-03-29T08:30:50;13.90;62.50
62583;DHT22;48641;51.676;5.808;2023-03-29T08:33:17;13.90;62.50
62583;DHT22;48641;51.676;5.808;2023-03-29T08:35:42;13.90;62.50
62583;DHT22;48641;51.676;5.808;2023-03-29T08:38:08;13.90;62.50
62583;DHT22;48641;51.676;5.808;2023-03-29T08:40:35;13.90;62.50
62583;DHT22;48641;51.676;5.808;2023-03-29T08:43:25;14.00;62.50
62583;DHT22;48641;51.676;5.808;2023-03-29T08:50:56;13.90;62.50
62583;DHT22;48641;51.676;5.808;2023-03-29T08:53:44;13.90;62.50
62583;DHT22;48641;51.676;5.808;2023-03-29T08:56:16;13.90;62.50
62583;DHT22;48641;51.676;5.808;2023-03-29T08:58:44;13.90;62.50
62583;DHT22;48641;51.676;5.808;2023-03-29T09:01:11;13.80;62.80
62583;DHT22;48641;51.676;5.808;2023-03-29T09:03:38;13.90;62.90
62583;DHT22;48641;51.676;5.808;2023-03-29T09:06:08;13.80;62.80
62583;DHT22;48641;51.676;5.808;2023-03-29T09:08:44;13.80;62.80
62583;DHT22;48641;51.676;5.808;2023-03-29T09:20:07;13.90;62.70
62583;DHT22;48641;51.676;5.808;2023-03-29T09:22:57;13.90;62.70
62583;DHT22;48641;51.676;5.808;2023-03-29T09:25:34;13.90;62.90
62583;DHT22;48641;51.676;5.808;2023-03-29T09:28:09;13.80;62.90
62583;DHT22;48641;51.676;5.808;2023-03-29T09:30:42;13.80;62.90
62583;DHT22;48641;51.676;5.808;2023-03-29T09:33:30;13.80;62.90
62583;DHT22;48641;51.676;5.808;2023-03-29T09:38:46;13.80;63.00
62583;DHT22;48641;51.676;5.808;2023-03-29T09:43:44;13.80;63.00
62583;DHT22;48641;51.676;5.808;2023-03-29T09:46:39;13.80;63.10
62583;DHT22;48641;51.676;5.808;2023-03-29T09:49:12;13.80;63.10
62583;DHT22;48641;51.676;5.808;2023-03-29T09:51:41;13.80;63.10
62583;DHT22;48641;51.676;5.808;2023-03-29T09:54:09;13.80;63.20
62583;DHT22;48641;51.676;5.808;2023-03-29T09:56:35;13.80;63.10
62583;DHT22;48641;51.676;5.808;2023-03-29T09:59:01;13.80;63.10
62583;DHT22;48641;51.676;5.808;2023-03-29T10:01:34;13.80;63.10
62583;DHT22;48641;51.676;5.808;2023-03-29T10:04:04;13.80;63.10
62583;DHT22;48641;51.676;5.808;2023-03-29T10:06:31;13.80;63.10
62583;DHT22;48641;51.676;5.808;2023-03-29T10:08:59;13.80;63.10
62583;DHT22;48641;51.676;5.808;2023-03-29T10:11:30;13.80;63.10
62583;DHT22;48641;51.676;5.808;2023-03-29T10:14:01;13.80;63.00
62583;DHT22;48641;51.676;5.808;2023-03-29T10:16:32;13.80;63.10
62583;DHT22;48641;51.676;5.808;2023-03-29T10:21:53;13.90;63.10
62583;DHT22;48641;51.676;5.808;2023-03-29T10:24:20;13.80;63.00
62583;DHT22;48641;51.676;5.808;2023-03-29T10:26:46;13.80;63.00
62583;DHT22;48641;51.676;5.808;2023-03-29T10:29:16;13.80;63.00
62583;DHT22;48641;51.676;5.808;2023-03-29T10:31:42;13.80;63.10
62583;DHT22;48641;51.676;5.808;2023-03-29T10:34:11;13.90;63.10
62583;DHT22;48641;51.676;5.808;2023-03-29T10:36:41;13.90;63.10
62583;DHT22;48641;51.676;5.808;2023-03-29T10:39:09;13.80;63.40
62583;DHT22;48641;51.676;5.808;2023-03-29T10:41:37;13.80;63.80
62583;DHT22;48641;51.676;5.808;2023-03-29T10:44:04;13.80;64.10
62583;DHT22;48641;51.676;5.808;2023-03-29T10:46:38;13.80;64.60
62583;DHT22;48641;51.676;5.808;2023-03-29T10:49:17;13.80;65.00
62583;DHT22;48641;51.676;5.808;2023-03-29T10:51:45;13.80;65.60
62583;DHT22;48641;51.676;5.808;2023-03-29T10:54:13;13.70;65.90
62583;DHT22;48641;51.676;5.808;2023-03-29T10:59:36;13.70;66.60
62583;DHT22;48641;51.676;5.808;2023-03-29T11:07:20;13.70;67.40
62583;DHT22;48641;51.676;5.808;2023-03-29T11:12:45;13.80;68.20
62583;DHT22;48641;51.676;5.808;2023-03-29T11:29:31;13.80;68.70
62583;DHT22;48641;51.676;5.808;2023-03-29T11:34:56;13.80;68.30
62583;DHT22;48641;51.676;5.808;2023-03-29T11:37:44;13.90;68.20
62583;DHT22;48641;51.676;5.808;2023-03-29T11:40:42;13.90;68.00
62583;DHT22;48641;51.676;5.808;2023-03-29T11:43:36;13.90;67.80
62583;DHT22;48641;51.676;5.808;2023-03-29T11:46:10;13.90;68.20
62583;DHT22;48641;51.676;5.808;2023-03-29T11:48:51;13.90;67.70
62583;DHT22;48641;51.676;5.808;2023-03-29T11:51:44;13.90;67.60
62583;DHT22;48641;51.676;5.808;2023-03-29T11:54:13;13.90;67.50
62583;DHT22;48641;51.676;5.808;2023-03-29T11:56:47;13.90;67.40
62583;DHT22;48641;51.676;5.808;2023-03-29T11:59:20;14.00;67.30
62583;DHT22;48641;51.676;5.808;2023-03-29T12:01:58;14.00;67.20
62583;DHT22;48641;51.676;5.808;2023-03-29T12:04:30;14.00;67.10
62583;DHT22;48641;51.676;5.808;2023-03-29T12:07:05;14.00;67.90
62583;DHT22;48641;51.676;5.808;2023-03-29T12:09:55;14.00;66.90
62583;DHT22;48641;51.676;5.808;2023-03-29T12:12:49;14.10;66.80
62583;DHT22;48641;51.676;5.808;2023-03-29T14:23:27;14.30;66.10
62583;DHT22;48641;51.676;5.808;2023-03-29T14:26:14;14.30;66.20
62583;DHT22;48641;51.676;5.808;2023-03-29T14:28:51;14.40;66.10
62583;DHT22;48641;51.676;5.808;2023-03-29T14:31:21;14.40;66.20
62583;DHT22;48641;51.676;5.808;2023-03-29T14:33:55;14.40;66.20
62583;DHT22;48641;51.676;5.808;2023-03-29T14:36:22;14.40;66.20
62583;DHT22;48641;51.676;5.808;2023-03-29T14:38:57;14.40;67.20
62583;DHT22;48641;51.676;5.808;2023-03-29T14:41:28;14.50;66.50
62583;DHT22;48641;51.676;5.808;2023-03-29T14:43:56;14.50;66.30
62583;DHT22;48641;51.676;5.808;2023-03-29T14:46:22;14.50;66.60
62583;DHT22;48641;51.676;5.808;2023-03-29T14:48:48;14.50;66.50
62583;DHT22;48641;51.676;5.808;2023-03-29T14:51:14;14.50;66.40
62583;DHT22;48641;51.676;5.808;2023-03-29T14:53:42;14.60;66.50
62583;DHT22;48641;51.676;5.808;2023-03-29T14:56:14;14.60;66.50
62583;DHT22;48641;51.676;5.808;2023-03-29T14:58:45;14.60;66.50
62583;DHT22;48641;51.676;5.808;2023-03-29T15:36:24;14.60;66.90
62583;DHT22;48641;51.676;5.808;2023-03-29T15:38:52;14.60;66.90
62583;DHT22;48641;51.676;5.808;2023-03-29T15:41:18;14.60;66.90
62583;DHT22;48641;51.676;5.808;2023-03-29T15:43:43;14.60;66.90
62583;DHT22;48641;51.676;5.808;2023-03-29T15:46:11;14.70;67.00
62583;DHT22;48641;51.676;5.808;2023-03-29T15:48:37;14.70;67.00
62583;DHT22;48641;51.676;5.808;2023-03-29T15:51:03;14.70;66.90
62583;DHT22;48641;51.676;5.808;2023-03-29T15:53:29;14.70;66.90
62583;DHT22;48641;51.676;5.808;2023-03-29T16:49:24;14.70;67.30
62583;DHT22;48641;51.676;5.808;2023-03-29T16:51:50;14.60;67.20
62583;DHT22;48641;51.676;5.808;2023-03-29T16:54:16;14.60;67.20
62583;DHT22;48641;51.676;5.808;2023-03-29T16:56:41;14.70;67.10
62583;DHT22;48641;51.676;5.808;2023-03-29T16:59:07;14.70;67.00
62583;DHT22;48641;51.676;5.808;2023-03-29T17:01:34;14.70;67.00
62583;DHT22;48641;51.676;5.808;2023-03-29T17:04:00;14.70;67.00
62583;DHT22;48641;51.676;5.808;2023-03-29T17:06:26;14.70;66.80
62583;DHT22;48641;51.676;5.808;2023-03-29T17:08:51;14.70;66.70
62583;DHT22;48641;51.676;5.808;2023-03-29T17:11:18;14.70;66.60
62583;DHT22;48641;51.676;5.808;2023-03-29T17:13:48;14.70;66.50
62583;DHT22;48641;51.676;5.808;2023-03-29T17:16:14;14.70;66.40
62583;DHT22;48641;51.676;5.808;2023-03-29T17:18:40;14.70;66.40
62583;DHT22;48641;51.676;5.808;2023-03-29T17:21:06;14.70;66.30
62583;DHT22;48641;51.676;5.808;2023-03-29T17:23:32;14.70;66.20
62583;DHT22;48641;51.676;5.808;2023-03-29T17:25:57;14.70;66.20
62583;DHT22;48641;51.676;5.808;2023-03-29T17:28:23;14.70;66.20
62583;DHT22;48641;51.676;5.808;2023-03-29T17:30:49;14.70;66.10
62583;DHT22;48641;51.676;5.808;2023-03-29T17:33:16;14.70;66.10
62583;DHT22;48641;51.676;5.808;2023-03-29T17:35:42;14.70;66.10
62583;DHT22;48641;51.676;5.808;2023-03-29T17:38:09;14.70;66.00
62583;DHT22;48641;51.676;5.808;2023-03-29T17:40:34;14.70;66.00
62583;DHT22;48641;51.676;5.808;2023-03-29T17:43:00;14.70;66.00
62583;DHT22;48641;51.676;5.808;2023-03-29T17:45:26;14.70;65.90
62583;DHT22;48641;51.676;5.808;2023-03-29T17:47:51;14.70;66.00
62583;DHT22;48641;51.676;5.808;2023-03-29T17:50:17;14.60;65.90
62583;DHT22;48641;51.676;5.808;2023-03-29T17:52:42;14.60;66.00
62583;DHT22;48641;51.676;5.808;2023-03-29T17:55:09;14.60;65.90
62583;DHT22;48641;51.676;5.808;2023-03-29T17:57:38;14.60;65.90
62583;DHT22;48641;51.676;5.808;2023-03-29T18:00:05;14.60;65.90
62583;DHT22;48641;51.676;5.808;2023-03-29T18:02:31;14.70;65.90
62583;DHT22;48641;51.676;5.808;2023-03-29T18:04:57;14.60;65.80
62583;DHT22;48641;51.676;5.808;2023-03-29T18:07:26;14.60;65.80
62583;DHT22;48641;51.676;5.808;2023-03-29T18:09:52;14.60;65.70
62583;DHT22;48641;51.676;5.808;2023-03-29T18:12:17;14.60;65.70
62583;DHT22;48641;51.676;5.808;2023-03-29T18:14:43;14.60;65.70
62583;DHT22;48641;51.676;5.808;2023-03-29T18:17:08;14.60;65.70
62583;DHT22;48641;51.676;5.808;2023-03-29T18:19:34;14.70;65.80
62583;DHT22;48641;51.676;5.808;2023-03-29T18:22:00;14.70;65.80
62583;DHT22;48641;51.676;5.808;2023-03-29T18:24:25;14.60;65.60
62583;DHT22;48641;51.676;5.808;2023-03-29T18:26:51;14.70;65.70
62583;DHT22;48641;51.676;5.808;2023-03-29T18:29:17;14.60;65.70
62583;DHT22;48641;51.676;5.808;2023-03-29T18:31:43;14.60;65.60
62583;DHT22;48641;51.676;5.808;2023-03-29T18:34:10;14.60;65.60
62583;DHT22;48641;51.676;5.808;2023-03-29T18:36:36;14.70;65.60
62583;DHT22;48641;51.676;5.808;2023-03-29T18:39:02;14.60;65.60
62583;DHT22;48641;51.676;5.808;2023-03-29T18:41:34;14.60;65.60
62583;DHT22;48641;51.676;5.808;2023-03-29T18:44:02;14.60;65.60
62583;DHT22;48641;51.676;5.808;2023-03-29T18:46:28;14.60;65.60
62583;DHT22;48641;51.676;5.808;2023-03-29T18:48:58;14.60;65.60
62583;DHT22;48641;51.676;5.808;2023-03-29T18:51:24;14.60;65.60
62583;DHT22;48641;51.676;5.808;2023-03-29T18:53:53;14.60;65.60
62583;DHT22;48641;51.676;5.808;2023-03-29T18:56:19;14.60;65.60
62583;DHT22;48641;51.676;5.808;2023-03-29T18:58:46;14.60;65.60
62583;DHT22;48641;51.676;5.808;2023-03-29T19:01:12;14.60;65.60
62583;DHT22;48641;51.676;5.808;2023-03-29T19:03:38;14.60;65.60
62583;DHT22;48641;51.676;5.808;2023-03-29T19:06:05;14.70;65.70
62583;DHT22;48641;51.676;5.808;2023-03-29T19:08:31;14.60;65.60
62583;DHT22;48641;51.676;5.808;2023-03-29T19:11:04;14.60;65.60
62583;DHT22;48641;51.676;5.808;2023-03-29T19:13:30;14.60;65.60
62583;DHT22;48641;51.676;5.808;2023-03-29T19:15:56;14.70;65.80
62583;DHT22;48641;51.676;5.808;2023-03-29T19:18:21;14.60;65.70
62583;DHT22;48641;51.676;5.808;2023-03-29T19:20:47;14.60;65.70
62583;DHT22;48641;51.676;5.808;2023-03-29T19:23:16;14.60;65.70
62583;DHT22;48641;51.676;5.808;2023-03-29T19:25:49;14.60;65.70
62583;DHT22;48641;51.676;5.808;2023-03-29T19:28:14;14.60;65.80
62583;DHT22;48641;51.676;5.808;2023-03-29T19:30:40;14.60;65.80
62583;DHT22;48641;51.676;5.808;2023-03-29T19:33:06;14.60;65.80
62583;DHT22;48641;51.676;5.808;2023-03-29T19:35:31;14.60;65.80
62583;DHT22;48641;51.676;5.808;2023-03-29T19:37:57;14.70;65.90
62583;DHT22;48641;51.676;5.808;2023-03-29T19:40:23;14.60;65.90
62583;DHT22;48641;51.676;5.808;2023-03-29T19:42:49;14.70;66.00
62583;DHT22;48641;51.676;5.808;2023-03-29T19:45:15;14.60;65.80
62583;DHT22;48641;51.676;5.808;2023-03-29T19:47:41;14.60;65.80
62583;DHT22;48641;51.676;5.808;2023-03-29T19:50:11;14.70;65.90
62583;DHT22;48641;51.676;5.808;2023-03-29T19:52:38;14.60;65.90
62583;DHT22;48641;51.676;5.808;2023-03-29T19:55:05;14.60;65.80
62583;DHT22;48641;51.676;5.808;2023-03-29T19:57:31;14.60;65.80
62583;DHT22;48641;51.676;5.808;2023-03-29T19:59:57;14.70;65.90
62583;DHT22;48641;51.676;5.808;2023-03-29T20:02:23;14.70;65.80
62583;DHT22;48641;51.676;5.808;2023-03-29T20:04:48;14.70;65.80
62583;DHT22;48641;51.676;5.808;2023-03-29T20:07:14;14.60;65.70
62583;DHT22;48641;51.676;5.808;2023-03-29T20:09:40;14.60;65.70
62583;DHT22;48641;51.676;5.808;2023-03-29T20:12:06;14.60;65.70
62583;DHT22;48641;51.676;5.808;2023-03-29T20:14:32;14.60;65.70
62583;DHT22;48641;51.676;5.808;2023-03-29T20:16:58;14.60;65.70
62583;DHT22;48641;51.676;5.808;2023-03-29T20:19:24;14.60;65.70
62583;DHT22;48641;51.676;5.808;2023-03-29T20:21:51;14.60;65.70
62583;DHT22;48641;51.676;5.808;2023-03-29T20:24:22;14.60;65.70
62583;DHT22;48641;51.676;5.808;2023-03-29T20:26:48;14.60;65.70
62583;DHT22;48641;51.676;5.808;2023-03-29T20:29:14;14.70;65.80
62583;DHT22;48641;51.676;5.808;2023-03-29T20:31:40;14.60;66.30